Rennie, Canada
Current Conditions -  °F | °C
As of 1:14 AM on Thursday 18 Dec 2014 (Local Time) from KFGN Reporting Station
Clear Clear  
Wind Chill:   Ceiling: Unl
Heat Index: 10°   Visibility: 10mi
Dew Point:   Wind: 5mph
Humidity: 73%   Direction: 120°ESE
Pressure: 30.3"   Gusts: NA
Location:  49.85°N, 95.55°W
Report Text: KFGN 180714Z AUTO 12004KT 10SM CLR M12/M16 A3030 RMK AO2
Loading
Personal Weather Stations






























Interactive Weather Map New forecast layout! Learn more

10-Day Weather Forecast

Advertisements
Track Severe Weather on mobile